Cestohowa, Texas
Current Conditions -  °F | °C
As of 10:35 AM on Monday 26 Jan 2015 (Local Time) from KPEZ Reporting Station
Clear Clear  
Wind Chill: 60°   Ceiling: Unl
Heat Index: 60°   Visibility: 10mi
Dew Point: 39°   Wind: 3mph
Humidity: 46%   Direction: 280°W
Pressure: 30.31"   Gusts: NA
Location:  28.933°N, 98.0642°W
Report Text: KPEZ 261635Z AUTO 28003KT 10SM CLR 15/04 A3031 RMK AO2 T01540037
Loading
Personal Weather Stations






























Interactive Weather Map New forecast layout! Learn more

10-Day Weather Forecast

Advertisements
Track Severe Weather on mobile